Detalii statie PETRESTI PETRESTI [0000197D]

Toti senzorii

Date Temperatura solului [C]Precipitatii [mm]Voltaj baterie [mV]Leaf Wetness [Min]HC Air temperature [C]HC Relative humidity [%]Punctul de roua [C]
medieminmaxsumaultimatimpmedieminmaxmediemediemin
2018-02-23 13:00:00 1.6 1.5 1.8 0.2 7030 1.93 1.73 2.37 0 0 0
2018-02-23 14:00:00 1.9 1.8 2.1 0 6982 2.36 2.18 2.53 0 0 0
2018-02-23 15:00:00 2.1 2.1 2.3 0.2 6972 2.32 2.2 2.44 0 0 0
2018-02-23 16:00:00 2.3 2.2 2.5 0 6932 1.94 1.74 2.12 0 0 0
2018-02-23 17:00:00 2.4 2.4 2.5 0.2 6864 1.35 1.11 1.71 0 0 0
2018-02-23 18:00:00 2.4 2.3 2.5 0.2 6844 0.66 0.3 1.07 0 0 0
2018-02-23 19:00:00 2.2 2.1 2.4 0 6816 0.12 -0.11 0.32 0 0 0
2018-02-23 20:00:00 2.1 2 2.2 0 6806 -0.51 -1.08 -0.05 0 0 0
2018-02-23 21:00:00 1.9 1.8 2 0 6816 -1.24 -1.4 -1.1 0 0 0
2018-02-23 22:00:00 1.7 1.7 1.8 0 6796 -1.83 -2.07 -1.57 0 0 0
2018-02-23 23:00:00 1.6 1.5 1.8 0 6816 -1.96 -2.06 -1.89 0 0 0
2018-02-24 00:00:00 1.5 1.4 1.6 0 6796 -2.05 -2.14 -1.95 0 0 0
2018-02-24 01:00:00 1.4 1.2 1.6 0 6796 -2.15 -2.23 -2.08 0 0 0
2018-02-24 02:00:00 1.3 1.3 1.4 0 6806 -2.46 -2.68 -2.25 0 0 0
2018-02-24 03:00:00 1.2 1.1 1.3 0 6776 -2.9 -3.3 -2.68 0 0 0
2018-02-24 04:00:00 1.1 1 1.3 0 6796 -3.79 -4.17 -3.26 0 0 0
2018-02-24 05:00:00 1 1 1.1 0 6786 -4.45 -4.73 -4.22 0 0 0
2018-02-24 06:00:00 0.9 0.9 1 0 6776 -4.86 -5.06 -4.7 0 0 0
2018-02-24 07:00:00 0.9 0.8 1.1 0 6786 -5.13 -5.24 -5.04 0 0 0
2018-02-24 08:00:00 0.9 0.8 1 0 6766 -5.13 -5.22 -4.98 0 0 0
2018-02-24 09:00:00 0.7 0.6 0.9 0 6806 -4.52 -4.91 -4.08 0 0 0
2018-02-24 10:00:00 0.7 0.6 0.8 0 6844 -3.6 -3.96 -3.27 0 0 0
2018-02-24 11:00:00 0.7 0.6 0.8 0 6932 -2.87 -3.25 -2.64 0 0 0
2018-02-24 12:00:00 0.7 0.6 0.8 0 6982 -2.16 -2.56 -1.87 0 0 0
2018-02-24 13:00:00 0.6 0.4 0.7 0 7236 -1.56 -2 -1.01 0 0 0
2018-02-24 14:00:00 0.6 0.5 0.7 0 7226 -0.62 -0.96 -0.35 0 0 0
2018-02-24 15:00:00 0.6 0.6 0.7 0 7226 -0.24 -0.45 0.1 0 0 0
2018-02-24 16:00:00 0.6 0.5 0.7 0 7216 -0.06 -0.33 0.13 11.59 0
2018-02-24 17:00:00 0.6 0.5 0.7 0 7138 -0.78 -1.5 -0.21 19.91 0
2018-02-24 18:00:00 0.6 0.5 0.8 0 6982 -1.86 -2.24 -1.52 57.03 -9.1 -10.1
2018-02-24 19:00:00 0.6 0.5 0.8 0 6932 -2.8 -3.39 -2.3 57.52 -10 -11.8
2018-02-24 20:00:00 0.6 0.5 0.7 0 6884 -3.78 -4.08 -3.44 63.09 -9.7 -10.5
2018-02-24 21:00:00 0.5 0.4 0.7 0 6864 -4.43 -4.8 -4.12 71.66 -8.7 -9.2
2018-02-24 22:00:00 0.5 0.5 0.7 0 6864 -5.07 -5.31 -4.84 73.26 -9 -10
2018-02-24 23:00:00 0.5 0.3 0.7 0 6834 -5.62 -5.96 -5.31 69.07 -11.4 -34.5
2018-02-25 00:00:00 0.4 0.3 0.5 0 6806 -6.23 -6.43 -5.96 71.2 -10.5 -11.7
2018-02-25 01:00:00 0.4 0.4 0.5 0 6844 -6.57 -6.73 -6.46 79 -9.5 -10.2
2018-02-25 02:00:00 0.4 0.3 0.6 0 6796 -6.68 -6.76 -6.6 77.86 -9.8 -11.3
2018-02-25 03:00:00 0.4 0.3 0.9 0 6816 -7.19 -7.58 -6.8 71.99 -11.3 -12.2
2018-02-25 04:00:00 0.3 0.3 0.5 0 6826 -7.83 -8.07 -7.62 74.33 -11.5 -12.7
2018-02-25 05:00:00 0.3 0.3 0.4 0 6806 -8.26 -8.4 -8.14 68.26 -13 -13.3
2018-02-25 06:00:00 0.2 0.2 0.4 0 6816 -8.58 -8.74 -8.44 71.56 -12.7 -13.4
2018-02-25 07:00:00 0.2 0.2 0.3 0 6786 -8.85 -8.95 -8.73 63.1 -14.5 -16.5
2018-02-25 08:00:00 0.1 0 0.3 0 6776 -8.97 -9.04 -8.83 65.95 -14.1 -15
2018-02-25 09:00:00 0.1 0 0.2 0 6844 -8.53 -8.8 -8.17 64.63 -13.9 -14.5
2018-02-25 10:00:00 0.1 0.1 0.1 0 6874 -7.68 -8.26 -7.14 79.2 -10.8 -14.6
2018-02-25 11:00:00 0 -0.1 0.1 0 6982 -6.68 -7.2 -6.04 100 -6.5 -7.1
2018-02-25 12:00:00 0 -0.1 0.1 0 7070 -5.76 -6.52 -5.19 100 -5.6 -6.4